Time;durP1;ratioP1;P1;durP2;ratioP2;P2;SDS_P1;SDS_P2;PMS_P1;PMS_P2;Temp;Humidity;BMP_temperature;BMP_pressure;BME280_temperature;BME280_humidity;BME280_pressure;Samples;Min_cycle;Max_cycle;Signal;HPM_P1;HPM_P2
2023/08/07 00:02:23;;;;;;;;;;;13.90;91.60;;;;;;5003393;28;19949;-85
2023/08/07 00:04:48;;;;;;;;;;;13.90;91.60;;;;;;5006303;28;19909;-84
2023/08/07 00:07:14;;;;;;;;;;;13.90;91.50;;;;;;5011044;28;19949;-84
2023/08/07 00:09:39;;;;;;;;;;;13.90;91.70;;;;;;5005094;28;19914;-84
2023/08/07 00:12:05;;;;;;;;;;;13.90;91.90;;;;;;5005991;28;19926;-84
2023/08/07 00:14:30;;;;;;;;;;;13.80;92.10;;;;;;5009642;28;19917;-84
2023/08/07 00:16:56;;;;;;;;;;;13.90;92.20;;;;;;5013934;28;19920;-84
2023/08/07 00:19:21;;;;;;;;;;;13.90;92.20;;;;;;5010003;28;20012;-83
2023/08/07 00:21:46;;;;;;;;;;;13.90;92.30;;;;;;5005997;28;19933;-84
2023/08/07 00:24:12;;;;;;;;;;;13.90;92.10;;;;;;5000344;28;19929;-83
2023/08/07 00:26:37;;;;;;;;;;;13.90;91.90;;;;;;4995917;28;20371;-85
2023/08/07 00:29:03;;;;;;;;;;;13.90;91.80;;;;;;5011291;28;20391;-82
2023/08/07 00:31:31;;;;;;;;;;;13.90;91.90;;;;;;5009901;28;19968;-83
2023/08/07 00:33:57;;;;;;;;;;;13.90;91.90;;;;;;5007153;28;19910;-83
2023/08/07 00:36:22;;;;;;;;;;;13.90;91.90;;;;;;5004425;28;19917;-83
2023/08/07 00:38:48;;;;;;;;;;;13.90;92.00;;;;;;5007342;28;19917;-83
2023/08/07 00:41:13;;;;;;;;;;;13.90;92.20;;;;;;5002748;28;19997;-84
2023/08/07 00:43:39;;;;;;;;;;;13.90;92.20;;;;;;5007167;28;19913;-85
2023/08/07 00:46:05;;;;;;;;;;;13.90;92.30;;;;;;4999303;28;19917;-84
2023/08/07 00:48:31;;;;;;;;;;;13.90;92.10;;;;;;5013529;28;19913;-84
2023/08/07 00:50:57;;;;;;;;;;;13.90;92.20;;;;;;5012823;28;19909;-84
2023/08/07 00:53:23;;;;;;;;;;;13.90;92.10;;;;;;5005114;28;19920;-84
2023/08/07 00:55:48;;;;;;;;;;;13.80;92.00;;;;;;4999456;28;19992;-84
2023/08/07 00:58:14;;;;;;;;;;;13.80;92.30;;;;;;4995715;28;19980;-84
2023/08/07 01:00:41;;;;;;;;;;;13.90;92.30;;;;;;4996333;28;19926;-84
2023/08/07 01:03:07;;;;;;;;;;;13.90;92.50;;;;;;4994269;28;20013;-84
2023/08/07 01:05:32;;;;;;;;;;;13.80;92.40;;;;;;4996583;28;19964;-84
2023/08/07 01:07:58;;;;;;;;;;;13.90;92.40;;;;;;4994924;28;20029;-84
2023/08/07 01:10:35;;;;;;;;;;;13.80;92.50;;;;;;4995114;28;19990;-84
2023/08/07 01:13:05;;;;;;;;;;;13.90;92.10;;;;;;4998192;28;19918;-84
2023/08/07 01:15:32;;;;;;;;;;;13.80;92.40;;;;;;4995136;28;19910;-83
2023/08/07 01:17:58;;;;;;;;;;;13.80;92.30;;;;;;4991872;28;19953;-82
2023/08/07 01:20:23;;;;;;;;;;;13.80;92.40;;;;;;4987531;28;19953;-84
2023/08/07 01:22:49;;;;;;;;;;;13.80;92.10;;;;;;4992471;28;20316;-84
2023/08/07 01:25:14;;;;;;;;;;;13.80;92.20;;;;;;4992550;28;19909;-84
2023/08/07 01:27:52;;;;;;;;;;;13.70;92.40;;;;;;4994700;28;19921;-85
2023/08/07 01:30:26;;;;;;;;;;;13.80;92.30;;;;;;4993645;28;20360;-84
2023/08/07 01:32:55;;;;;;;;;;;13.80;92.20;;;;;;4998658;28;19917;-84
2023/08/07 01:35:21;;;;;;;;;;;13.80;92.30;;;;;;4995614;28;19971;-85
2023/08/07 01:37:48;;;;;;;;;;;13.70;92.30;;;;;;5003808;28;20052;-84
2023/08/07 01:40:14;;;;;;;;;;;13.80;92.30;;;;;;5004207;28;20032;-83
2023/08/07 01:42:39;;;;;;;;;;;13.80;92.10;;;;;;5003664;28;19953;-84
2023/08/07 01:45:05;;;;;;;;;;;13.70;92.00;;;;;;5002288;28;19917;-84
2023/08/07 01:47:30;;;;;;;;;;;13.60;92.40;;;;;;4995387;28;19928;-84
2023/08/07 01:49:56;;;;;;;;;;;13.70;92.30;;;;;;5010460;28;19921;-83
2023/08/07 01:52:21;;;;;;;;;;;13.60;92.50;;;;;;4996082;28;19924;-84
2023/08/07 01:54:47;;;;;;;;;;;13.60;92.70;;;;;;4995849;28;19913;-84
2023/08/07 01:57:12;;;;;;;;;;;13.60;92.60;;;;;;4997822;28;19913;-84
2023/08/07 01:59:38;;;;;;;;;;;13.70;92.40;;;;;;5005474;28;19918;-83
2023/08/07 02:02:03;;;;;;;;;;;13.60;92.10;;;;;;4999551;28;19996;-85
2023/08/07 02:04:29;;;;;;;;;;;13.60;92.20;;;;;;4999315;28;20011;-84
2023/08/07 02:06:54;;;;;;;;;;;13.60;92.10;;;;;;5012504;28;20328;-85
2023/08/07 02:09:20;;;;;;;;;;;13.60;92.10;;;;;;4996181;28;19902;-85
2023/08/07 02:11:46;;;;;;;;;;;13.60;92.40;;;;;;5025925;28;19920;-87
2023/08/07 02:14:11;;;;;;;;;;;13.60;92.30;;;;;;5006596;28;19936;-85
2023/08/07 02:16:37;;;;;;;;;;;13.60;92.10;;;;;;5000396;28;20279;-85
2023/08/07 02:19:02;;;;;;;;;;;13.60;92.10;;;;;;5005114;28;19914;-84
2023/08/07 02:21:27;;;;;;;;;;;13.60;92.40;;;;;;5010822;28;19914;-85
2023/08/07 02:23:53;;;;;;;;;;;13.60;92.40;;;;;;5006729;28;19913;-85
2023/08/07 02:26:18;;;;;;;;;;;13.60;92.40;;;;;;5010330;28;19929;-85
2023/08/07 02:28:44;;;;;;;;;;;13.60;92.50;;;;;;5002006;28;19925;-84
2023/08/07 02:31:09;;;;;;;;;;;13.60;92.50;;;;;;5001539;28;20012;-86
2023/08/07 02:33:35;;;;;;;;;;;13.60;92.40;;;;;;5009676;28;20386;-85
2023/08/07 02:36:00;;;;;;;;;;;13.50;92.60;;;;;;5014852;28;19996;-85
2023/08/07 02:38:26;;;;;;;;;;;13.60;92.50;;;;;;5008830;28;19936;-85
2023/08/07 02:40:51;;;;;;;;;;;13.60;92.50;;;;;;5001010;28;19942;-85
2023/08/07 02:43:16;;;;;;;;;;;13.60;92.30;;;;;;5019699;28;19902;-86
2023/08/07 02:45:42;;;;;;;;;;;13.60;92.40;;;;;;5023415;28;19985;-86
2023/08/07 02:48:07;;;;;;;;;;;13.60;92.20;;;;;;5019297;28;20414;-84
2023/08/07 02:50:33;;;;;;;;;;;13.60;92.30;;;;;;5012421;28;20330;-83
2023/08/07 02:53:01;;;;;;;;;;;13.60;92.40;;;;;;4996190;28;19980;-84
2023/08/07 02:55:27;;;;;;;;;;;13.60;92.30;;;;;;4994040;28;20339;-84
2023/08/07 02:57:52;;;;;;;;;;;13.60;92.20;;;;;;4992168;28;19914;-84
2023/08/07 03:00:18;;;;;;;;;;;13.60;92.30;;;;;;4994247;28;19921;-84
2023/08/07 03:02:43;;;;;;;;;;;13.60;92.30;;;;;;4992834;28;20296;-84
2023/08/07 03:05:09;;;;;;;;;;;13.60;92.40;;;;;;4993275;28;20005;-84
2023/08/07 03:07:34;;;;;;;;;;;13.60;92.40;;;;;;4993015;28;19914;-84
2023/08/07 03:10:00;;;;;;;;;;;13.70;92.30;;;;;;4994310;28;19913;-84
2023/08/07 03:12:25;;;;;;;;;;;13.60;91.90;;;;;;4994909;28;19914;-84
2023/08/07 03:14:51;;;;;;;;;;;13.60;92.10;;;;;;4984363;28;20447;-86
2023/08/07 03:17:16;;;;;;;;;;;13.60;92.10;;;;;;4988931;28;19913;-84
2023/08/07 03:19:42;;;;;;;;;;;13.60;91.90;;;;;;4990778;28;19912;-84
2023/08/07 03:22:08;;;;;;;;;;;13.70;92.20;;;;;;4990923;28;19918;-84
2023/08/07 03:24:33;;;;;;;;;;;13.70;92.20;;;;;;4992417;28;20451;-84
2023/08/07 03:26:59;;;;;;;;;;;13.70;91.60;;;;;;4992612;28;19914;-85
2023/08/07 03:29:24;;;;;;;;;;;13.60;91.90;;;;;;4992933;28;19922;-85
2023/08/07 03:31:49;;;;;;;;;;;13.60;92.00;;;;;;4994766;28;20473;-84
2023/08/07 03:34:15;;;;;;;;;;;13.60;92.10;;;;;;5004764;28;19917;-85
2023/08/07 03:36:40;;;;;;;;;;;13.60;92.00;;;;;;4997738;28;20318;-83
2023/08/07 03:39:06;;;;;;;;;;;13.60;92.10;;;;;;4996386;28;19913;-83
2023/08/07 03:41:31;;;;;;;;;;;13.70;91.50;;;;;;5000453;28;19920;-84
2023/08/07 03:43:57;;;;;;;;;;;13.60;91.60;;;;;;4996546;28;20593;-84
2023/08/07 03:46:22;;;;;;;;;;;13.60;91.90;;;;;;4996625;28;19910;-84
2023/08/07 03:48:48;;;;;;;;;;;13.60;92.00;;;;;;4993074;28;19914;-83
2023/08/07 03:51:16;;;;;;;;;;;13.60;91.90;;;;;;4996963;28;20391;-84
2023/08/07 03:53:42;;;;;;;;;;;13.60;91.60;;;;;;4996599;28;19933;-83
2023/08/07 03:56:07;;;;;;;;;;;13.60;91.50;;;;;;5005796;28;19914;-84
2023/08/07 03:58:32;;;;;;;;;;;13.60;91.90;;;;;;4995993;28;19924;-82
2023/08/07 04:00:58;;;;;;;;;;;13.60;91.60;;;;;;5003178;28;19918;-83
2023/08/07 04:03:23;;;;;;;;;;;13.60;91.90;;;;;;4998825;28;19933;-84
2023/08/07 04:05:53;;;;;;;;;;;13.60;92.10;;;;;;4996725;28;19914;-85
2023/08/07 04:08:19;;;;;;;;;;;13.50;92.10;;;;;;4995850;28;19918;-83
2023/08/07 04:10:44;;;;;;;;;;;13.50;91.90;;;;;;4998011;28;20505;-82
2023/08/07 04:13:09;;;;;;;;;;;13.60;92.00;;;;;;5001585;28;19921;-84
2023/08/07 04:15:35;;;;;;;;;;;13.60;91.80;;;;;;5006584;28;19968;-83
2023/08/07 04:18:00;;;;;;;;;;;13.60;91.90;;;;;;5000623;28;19914;-84
2023/08/07 04:20:26;;;;;;;;;;;13.60;91.90;;;;;;5007510;28;19957;-84
2023/08/07 04:22:52;;;;;;;;;;;13.60;92.00;;;;;;4996696;28;20331;-84
2023/08/07 04:25:17;;;;;;;;;;;13.50;91.90;;;;;;4997758;28;19914;-83
2023/08/07 04:27:42;;;;;;;;;;;13.50;91.80;;;;;;4997713;28;19914;-85
2023/08/07 04:30:08;;;;;;;;;;;13.50;91.90;;;;;;5022513;28;19905;-87
2023/08/07 04:32:34;;;;;;;;;;;13.50;92.00;;;;;;5016985;28;19921;-85
2023/08/07 04:34:59;;;;;;;;;;;13.50;92.00;;;;;;5004085;28;19913;-85
2023/08/07 04:37:25;;;;;;;;;;;13.60;92.20;;;;;;5000196;28;19913;-84
2023/08/07 04:39:50;;;;;;;;;;;13.50;91.70;;;;;;5007238;28;20013;-85
2023/08/07 04:42:15;;;;;;;;;;;13.50;91.50;;;;;;5004414;28;19921;-84
2023/08/07 04:44:41;;;;;;;;;;;13.50;91.70;;;;;;5000066;28;19948;-84
2023/08/07 04:47:06;;;;;;;;;;;13.50;91.80;;;;;;5010074;28;19917;-84
2023/08/07 04:49:32;;;;;;;;;;;13.50;91.80;;;;;;4992070;28;19956;-84
2023/08/07 04:51:57;;;;;;;;;;;13.50;91.90;;;;;;4999922;28;19985;-83
2023/08/07 04:54:23;;;;;;;;;;;13.50;91.90;;;;;;4998234;28;19922;-84
2023/08/07 04:56:48;;;;;;;;;;;13.60;91.70;;;;;;4993546;28;19914;-85
2023/08/07 04:59:14;;;;;;;;;;;13.60;91.80;;;;;;4994773;28;19925;-86
2023/08/07 05:01:39;;;;;;;;;;;13.60;91.90;;;;;;4996179;28;20004;-86
2023/08/07 05:04:05;;;;;;;;;;;13.60;91.60;;;;;;4996475;28;19925;-82
2023/08/07 05:06:30;;;;;;;;;;;13.60;91.60;;;;;;4996857;28;19921;-86
2023/08/07 05:08:56;;;;;;;;;;;13.60;91.50;;;;;;4991057;28;20388;-84
2023/08/07 05:11:21;;;;;;;;;;;13.50;91.30;;;;;;4995701;28;19913;-85
2023/08/07 05:13:47;;;;;;;;;;;13.50;91.60;;;;;;4998050;28;19914;-83
2023/08/07 05:16:12;;;;;;;;;;;13.50;91.70;;;;;;4993378;28;19929;-86
2023/08/07 05:18:38;;;;;;;;;;;13.60;91.70;;;;;;5002757;28;19913;-85
2023/08/07 05:21:03;;;;;;;;;;;13.50;91.80;;;;;;4998204;28;19917;-84
2023/08/07 05:23:29;;;;;;;;;;;13.60;91.70;;;;;;4995758;28;19914;-83
2023/08/07 05:25:54;;;;;;;;;;;13.50;91.60;;;;;;4993286;28;20005;-84
2023/08/07 05:28:20;;;;;;;;;;;13.50;91.60;;;;;;5000281;28;19917;-83
2023/08/07 05:30:45;;;;;;;;;;;13.60;91.80;;;;;;4999461;28;19972;-83
2023/08/07 05:33:10;;;;;;;;;;;13.60;91.40;;;;;;5004361;28;20299;-83
2023/08/07 05:35:37;;;;;;;;;;;13.60;91.20;;;;;;5001542;28;20434;-84
2023/08/07 05:38:05;;;;;;;;;;;13.60;91.70;;;;;;5012346;28;19918;-84
2023/08/07 05:40:31;;;;;;;;;;;13.60;91.50;;;;;;5001174;28;19921;-85
2023/08/07 05:42:56;;;;;;;;;;;13.60;91.60;;;;;;5000655;28;20442;-86
2023/08/07 05:45:22;;;;;;;;;;;13.60;91.90;;;;;;5027726;28;19914;-87
2023/08/07 05:47:47;;;;;;;;;;;13.60;91.70;;;;;;5017778;28;19913;-85
2023/08/07 05:50:12;;;;;;;;;;;13.50;91.90;;;;;;5001278;28;20287;-85
2023/08/07 05:52:38;;;;;;;;;;;13.50;91.60;;;;;;4994708;28;19918;-83
2023/08/07 05:55:05;;;;;;;;;;;13.50;91.90;;;;;;4999437;28;20386;-84
2023/08/07 05:57:31;;;;;;;;;;;13.50;91.80;;;;;;4988457;28;19961;-83
2023/08/07 05:59:56;;;;;;;;;;;13.40;91.50;;;;;;5004947;23;20062;-88
2023/08/07 06:02:22;;;;;;;;;;;13.30;91.70;;;;;;4963414;28;19910;-88
2023/08/07 06:04:48;;;;;;;;;;;13.40;91.90;;;;;;4979317;28;19966;-89
2023/08/07 06:07:13;;;;;;;;;;;13.30;91.90;;;;;;4956880;28;20005;-89
2023/08/07 06:09:39;;;;;;;;;;;13.30;92.40;;;;;;4955348;28;19965;-89
2023/08/07 06:12:04;;;;;;;;;;;13.30;92.30;;;;;;4953945;29;19915;-89
2023/08/07 06:14:30;;;;;;;;;;;13.30;92.40;;;;;;4953608;29;19997;-90
2023/08/07 06:16:57;;;;;;;;;;;13.40;92.40;;;;;;4953568;29;19953;-90
2023/08/07 06:19:23;;;;;;;;;;;13.40;92.20;;;;;;4954310;28;19981;-90
2023/08/07 06:21:49;;;;;;;;;;;13.40;92.40;;;;;;4961477;29;20440;-90
2023/08/07 06:24:14;;;;;;;;;;;13.50;92.20;;;;;;4954078;29;19918;-89
2023/08/07 06:26:40;;;;;;;;;;;13.50;92.20;;;;;;4953399;28;19965;-87
2023/08/07 06:29:05;;;;;;;;;;;13.60;92.00;;;;;;4954546;28;19914;-88
2023/08/07 06:31:30;;;;;;;;;;;13.60;91.80;;;;;;4954038;28;19915;-89
2023/08/07 06:33:56;;;;;;;;;;;13.50;92.00;;;;;;4973093;28;19916;-87
2023/08/07 06:36:22;;;;;;;;;;;13.50;92.40;;;;;;4972514;28;19910;-88
2023/08/07 06:38:47;;;;;;;;;;;13.60;92.30;;;;;;4972557;28;20269;-87
2023/08/07 06:41:13;;;;;;;;;;;13.60;92.20;;;;;;4972402;28;19911;-89
2023/08/07 06:43:38;;;;;;;;;;;13.60;92.10;;;;;;4972904;28;19916;-88
2023/08/07 06:46:03;;;;;;;;;;;13.60;92.30;;;;;;4972608;28;20399;-88
2023/08/07 06:48:29;;;;;;;;;;;13.60;92.20;;;;;;4973413;28;20450;-89
2023/08/07 06:50:54;;;;;;;;;;;13.60;92.30;;;;;;4971728;28;19936;-88
2023/08/07 06:53:20;;;;;;;;;;;13.70;92.50;;;;;;4971599;28;20384;-88
2023/08/07 06:55:45;;;;;;;;;;;13.70;92.40;;;;;;4969752;28;19921;-88
2023/08/07 06:58:11;;;;;;;;;;;13.70;92.10;;;;;;4971014;28;19918;-87
2023/08/07 07:00:36;;;;;;;;;;;13.70;92.10;;;;;;4962611;28;19929;-88
2023/08/07 07:03:02;;;;;;;;;;;13.80;91.80;;;;;;4967409;28;19911;-89
2023/08/07 07:05:28;;;;;;;;;;;13.80;91.70;;;;;;4961492;28;19918;-88
2023/08/07 07:07:54;;;;;;;;;;;13.90;91.70;;;;;;4972865;28;20398;-89
2023/08/07 07:10:20;;;;;;;;;;;13.80;91.80;;;;;;4971954;28;19922;-87
2023/08/07 07:12:45;;;;;;;;;;;13.80;91.50;;;;;;4963611;28;19915;-87
2023/08/07 07:15:11;;;;;;;;;;;13.80;91.90;;;;;;4958635;28;20414;-87
2023/08/07 07:17:36;;;;;;;;;;;13.90;91.90;;;;;;4958397;28;19911;-87
2023/08/07 07:20:02;;;;;;;;;;;14.00;92.00;;;;;;4957889;28;19953;-87
2023/08/07 07:22:28;;;;;;;;;;;14.00;92.00;;;;;;4959960;28;19911;-87
2023/08/07 07:24:57;;;;;;;;;;;14.00;92.20;;;;;;4957940;28;20422;-87
2023/08/07 07:27:25;;;;;;;;;;;14.00;91.70;;;;;;4965735;28;20524;-87
2023/08/07 07:29:50;;;;;;;;;;;14.00;91.60;;;;;;4958886;28;19918;-88
2023/08/07 07:32:16;;;;;;;;;;;13.90;92.00;;;;;;4971143;28;19914;-89
2023/08/07 07:34:41;;;;;;;;;;;14.00;92.10;;;;;;4970709;28;20352;-87
2023/08/07 07:37:07;;;;;;;;;;;14.00;92.10;;;;;;4974220;28;20000;-87
2023/08/07 07:39:34;;;;;;;;;;;13.90;92.10;;;;;;4990344;28;19965;-87
2023/08/07 07:41:59;;;;;;;;;;;13.90;92.10;;;;;;4974197;28;19919;-87
2023/08/07 07:44:24;;;;;;;;;;;13.90;92.40;;;;;;4962829;28;19958;-87
2023/08/07 07:46:50;;;;;;;;;;;13.90;92.50;;;;;;4958891;28;19957;-87
2023/08/07 07:49:16;;;;;;;;;;;14.00;92.40;;;;;;4959953;28;19965;-87
2023/08/07 07:51:44;;;;;;;;;;;14.00;92.40;;;;;;4960241;28;19921;-87
2023/08/07 07:54:10;;;;;;;;;;;14.00;92.30;;;;;;4975215;28;19970;-87
2023/08/07 07:56:35;;;;;;;;;;;14.00;92.50;;;;;;4972101;28;19919;-88
2023/08/07 07:59:00;;;;;;;;;;;14.00;92.50;;;;;;4968872;28;20008;-87
2023/08/07 08:01:26;;;;;;;;;;;14.00;92.60;;;;;;4969678;28;20304;-88
2023/08/07 08:03:52;;;;;;;;;;;14.00;92.50;;;;;;4964043;28;19914;-88
2023/08/07 08:06:18;;;;;;;;;;;14.00;92.80;;;;;;4982480;28;20387;-87
2023/08/07 08:08:43;;;;;;;;;;;14.10;93.00;;;;;;4966829;28;19911;-87
2023/08/07 08:11:09;;;;;;;;;;;14.10;92.50;;;;;;4961646;28;19914;-87
2023/08/07 08:13:38;;;;;;;;;;;14.10;92.30;;;;;;4971391;28;19921;-88
2023/08/07 08:16:04;;;;;;;;;;;14.20;92.30;;;;;;4968989;28;19921;-88
2023/08/07 08:18:29;;;;;;;;;;;14.20;92.20;;;;;;4964865;28;19910;-89
2023/08/07 08:20:55;;;;;;;;;;;14.20;92.20;;;;;;4972767;28;20564;-88
2023/08/07 08:23:20;;;;;;;;;;;14.30;91.80;;;;;;4957327;28;19922;-87
2023/08/07 08:25:46;;;;;;;;;;;14.30;91.90;;;;;;4964822;28;19968;-87
2023/08/07 08:28:11;;;;;;;;;;;14.30;91.90;;;;;;4969784;28;20390;-89
2023/08/07 08:30:37;;;;;;;;;;;14.40;91.50;;;;;;4970959;28;19934;-89
2023/08/07 08:33:02;;;;;;;;;;;14.40;91.70;;;;;;4965963;28;19925;-88
2023/08/07 08:35:27;;;;;;;;;;;14.40;91.80;;;;;;4966926;28;19914;-90
2023/08/07 08:37:53;;;;;;;;;;;14.40;91.70;;;;;;4970774;28;20049;-88
2023/08/07 08:40:19;;;;;;;;;;;14.40;91.60;;;;;;4973860;28;19914;-89
2023/08/07 08:42:45;;;;;;;;;;;14.40;91.60;;;;;;4966758;28;20369;-89
2023/08/07 08:45:12;;;;;;;;;;;14.50;91.60;;;;;;4960669;28;19911;-89
2023/08/07 08:47:38;;;;;;;;;;;14.60;91.70;;;;;;4968871;28;19910;-89
2023/08/07 08:50:08;;;;;;;;;;;14.70;91.80;;;;;;4959698;28;19990;-90
2023/08/07 08:52:35;;;;;;;;;;;14.60;91.20;;;;;;4964741;28;19914;-88
2023/08/07 08:55:01;;;;;;;;;;;14.60;91.40;;;;;;4961081;28;19911;-90
2023/08/07 08:57:26;;;;;;;;;;;14.50;91.10;;;;;;4968014;28;19910;-90
2023/08/07 08:59:52;;;;;;;;;;;14.60;91.30;;;;;;4991221;28;19922;-89
2023/08/07 09:02:18;;;;;;;;;;;14.70;91.20;;;;;;4971634;28;20329;-88
2023/08/07 09:04:44;;;;;;;;;;;14.70;91.10;;;;;;4962610;28;20513;-90
2023/08/07 09:07:10;;;;;;;;;;;14.80;91.50;;;;;;4970283;28;19918;-88
2023/08/07 09:09:36;;;;;;;;;;;14.80;90.90;;;;;;4972891;28;20372;-88
2023/08/07 09:12:02;;;;;;;;;;;14.80;90.80;;;;;;4965613;28;19921;-89
2023/08/07 09:14:31;;;;;;;;;;;14.80;91.00;;;;;;4975075;28;19941;-89
2023/08/07 09:16:59;;;;;;;;;;;14.90;91.10;;;;;;4959668;28;19953;-90
2023/08/07 09:19:24;;;;;;;;;;;15.00;91.40;;;;;;4965566;28;20348;-91
2023/08/07 09:22:19;;;;;;;;;;;15.20;91.10;;;;;;4959457;28;19950;-92
2023/08/07 09:24:45;;;;;;;;;;;15.40;90.70;;;;;;4976701;28;20008;-88
2023/08/07 09:27:10;;;;;;;;;;;15.50;90.70;;;;;;4969084;28;19952;-89
2023/08/07 09:29:36;;;;;;;;;;;15.60;90.30;;;;;;4953996;28;19918;-88
2023/08/07 09:32:14;;;;;;;;;;;15.60;89.80;;;;;;4954612;28;19929;-89
2023/08/07 09:34:40;;;;;;;;;;;15.50;89.80;;;;;;4967279;28;19910;-88
2023/08/07 09:37:06;;;;;;;;;;;15.50;90.00;;;;;;4973564;28;20033;-92
2023/08/07 09:39:32;;;;;;;;;;;15.50;89.60;;;;;;4965214;28;19969;-90
2023/08/07 09:41:57;;;;;;;;;;;15.40;89.80;;;;;;4971843;28;20010;-89
2023/08/07 09:44:23;;;;;;;;;;;15.50;88.80;;;;;;4954373;28;19922;-88
2023/08/07 09:46:48;;;;;;;;;;;15.60;89.10;;;;;;4961003;28;19915;-87
2023/08/07 09:49:14;;;;;;;;;;;15.60;89.00;;;;;;4964435;28;20292;-88
2023/08/07 09:51:43;;;;;;;;;;;15.60;88.60;;;;;;4968911;28;19936;-88
2023/08/07 09:54:09;;;;;;;;;;;15.60;88.40;;;;;;4954753;28;19910;-89
2023/08/07 09:56:35;;;;;;;;;;;15.70;89.10;;;;;;4973071;28;20399;-88
2023/08/07 09:59:00;;;;;;;;;;;15.70;88.60;;;;;;4970152;28;19984;-86
2023/08/07 10:01:26;;;;;;;;;;;15.80;88.50;;;;;;4956240;28;20467;-87
2023/08/07 10:03:51;;;;;;;;;;;16.00;87.70;;;;;;4955289;28;19911;-88
2023/08/07 10:06:18;;;;;;;;;;;16.10;88.00;;;;;;4955177;28;19942;-90
2023/08/07 10:08:44;;;;;;;;;;;16.20;87.70;;;;;;4972260;28;19914;-88
2023/08/07 10:11:10;;;;;;;;;;;16.20;86.70;;;;;;4972065;28;19916;-89
2023/08/07 10:13:36;;;;;;;;;;;16.20;86.20;;;;;;4958325;28;20001;-89
2023/08/07 10:16:02;;;;;;;;;;;16.20;86.40;;;;;;4975518;28;19956;-90
2023/08/07 10:18:28;;;;;;;;;;;16.10;86.40;;;;;;4974533;28;19995;-93
2023/08/07 10:21:19;;;;;;;;;;;16.00;87.00;;;;;;4986042;28;19918;-91
2023/08/07 10:23:45;;;;;;;;;;;16.00;88.10;;;;;;4923154;29;19911;-91
2023/08/07 10:26:12;;;;;;;;;;;15.80;86.10;;;;;;4948942;28;19933;-89
2023/08/07 10:28:41;;;;;;;;;;;15.80;86.90;;;;;;4966745;28;19921;-92
2023/08/07 10:31:11;;;;;;;;;;;15.60;86.80;;;;;;4974247;28;19910;-91
2023/08/07 10:33:36;;;;;;;;;;;15.40;86.60;;;;;;4973891;28;19921;-90
2023/08/07 10:36:29;;;;;;;;;;;;;;;;;;;;;
2023/08/07 10:39:08;;;;;;;;;;;15.40;88.50;;;;;;4968481;28;19920;-91
2023/08/07 10:41:41;;;;;;;;;;;15.40;88.40;;;;;;4955101;28;19911;-90
2023/08/07 10:44:23;;;;;;;;;;;15.60;88.70;;;;;;4967398;28;19938;-91
2023/08/07 10:46:50;;;;;;;;;;;15.60;88.00;;;;;;4967142;28;19911;-87
2023/08/07 10:49:36;;;;;;;;;;;15.70;87.10;;;;;;4972904;28;19910;-90
2023/08/07 10:52:22;;;;;;;;;;;15.80;87.10;;;;;;4964120;28;20395;-90
2023/08/07 10:54:50;;;;;;;;;;;16.10;86.10;;;;;;4968417;28;20391;-89
2023/08/07 10:57:16;;;;;;;;;;;16.30;84.80;;;;;;4954098;28;20372;-87
2023/08/07 11:00:00;;;;;;;;;;;16.50;85.30;;;;;;4962968;28;20358;-89
2023/08/07 11:02:29;;;;;;;;;;;16.60;84.80;;;;;;4969607;28;20274;-90
2023/08/07 11:04:55;;;;;;;;;;;16.60;85.30;;;;;;4970546;28;19911;-88
2023/08/07 11:07:29;;;;;;;;;;;16.70;83.90;;;;;;4956159;28;19921;-84
2023/08/07 11:09:56;;;;;;;;;;;16.70;82.90;;;;;;4960966;28;20401;-85
2023/08/07 11:12:25;;;;;;;;;;;16.70;82.60;;;;;;4965415;28;19926;-86
2023/08/07 11:14:52;;;;;;;;;;;16.90;84.60;;;;;;4957810;28;19917;-85
2023/08/07 11:17:18;;;;;;;;;;;16.90;82.20;;;;;;4952301;28;19917;-86
2023/08/07 11:19:46;;;;;;;;;;;17.00;80.90;;;;;;4969541;28;19922;-87
2023/08/07 11:22:11;;;;;;;;;;;17.10;80.90;;;;;;4964716;28;19910;-88
2023/08/07 11:24:37;;;;;;;;;;;17.10;81.20;;;;;;4967532;28;19910;-87
2023/08/07 11:27:03;;;;;;;;;;;17.10;79.80;;;;;;4968242;28;20288;-87
2023/08/07 11:29:29;;;;;;;;;;;17.10;80.20;;;;;;4968606;28;20017;-87
2023/08/07 11:32:06;;;;;;;;;;;17.30;78.20;;;;;;4954745;28;19918;-87
2023/08/07 11:34:32;;;;;;;;;;;17.50;78.60;;;;;;4960903;28;19925;-87
2023/08/07 11:36:58;;;;;;;;;;;17.50;76.80;;;;;;4964589;28;19918;-86
2023/08/07 11:39:26;;;;;;;;;;;17.50;76.10;;;;;;4954723;28;19921;-88
2023/08/07 11:41:55;;;;;;;;;;;17.40;76.10;;;;;;4956946;28;19910;-87
2023/08/07 11:44:35;;;;;;;;;;;17.60;77.00;;;;;;4961651;28;20379;-87
2023/08/07 11:47:21;;;;;;;;;;;17.70;76.30;;;;;;4969897;28;19997;-88
2023/08/07 11:49:47;;;;;;;;;;;17.80;75.90;;;;;;4951971;28;20328;-85
2023/08/07 11:52:13;;;;;;;;;;;17.60;76.10;;;;;;4953178;28;20010;-85
2023/08/07 11:54:39;;;;;;;;;;;17.30;76.90;;;;;;4954694;28;19922;-85
2023/08/07 11:57:15;;;;;;;;;;;17.10;75.40;;;;;;4958353;28;20104;-86
2023/08/07 11:59:40;;;;;;;;;;;17.00;76.50;;;;;;4995928;23;19952;-82
2023/08/07 12:02:11;;;;;;;;;;;16.90;78.10;;;;;;5001238;28;19941;-81
2023/08/07 12:04:36;;;;;;;;;;;16.90;78.40;;;;;;4981884;28;19910;-80
2023/08/07 12:07:02;;;;;;;;;;;16.90;79.60;;;;;;4996943;28;19914;-82
2023/08/07 12:09:28;;;;;;;;;;;17.00;77.00;;;;;;4979865;28;19982;-80
2023/08/07 12:11:59;;;;;;;;;;;17.30;75.10;;;;;;4996049;28;19929;-82
2023/08/07 12:14:28;;;;;;;;;;;17.50;73.40;;;;;;4994186;28;19929;-82
2023/08/07 12:16:54;;;;;;;;;;;17.80;73.50;;;;;;4991241;28;19917;-82
2023/08/07 12:19:20;;;;;;;;;;;17.80;70.50;;;;;;5001451;28;20328;-83
2023/08/07 12:21:45;;;;;;;;;;;17.60;70.80;;;;;;5010159;28;19989;-83
2023/08/07 12:24:12;;;;;;;;;;;17.50;71.80;;;;;;4996717;28;19968;-82
2023/08/07 12:26:41;;;;;;;;;;;17.40;72.50;;;;;;4999854;28;20406;-78
2023/08/07 12:29:06;;;;;;;;;;;17.50;72.40;;;;;;4998992;28;19941;-79
2023/08/07 12:31:32;;;;;;;;;;;17.60;72.70;;;;;;4996133;28;19914;-82
2023/08/07 12:33:57;;;;;;;;;;;17.60;73.20;;;;;;4996636;28;20342;-82
2023/08/07 12:36:22;;;;;;;;;;;17.60;73.40;;;;;;4996422;28;19910;-81
2023/08/07 12:38:48;;;;;;;;;;;17.60;73.00;;;;;;4998479;28;19986;-82
2023/08/07 12:41:14;;;;;;;;;;;17.50;72.00;;;;;;4999550;28;19910;-82
2023/08/07 12:43:39;;;;;;;;;;;17.60;71.90;;;;;;5001979;28;19910;-81
2023/08/07 12:46:05;;;;;;;;;;;17.80;72.80;;;;;;5003976;28;19910;-82
2023/08/07 12:48:30;;;;;;;;;;;18.00;72.00;;;;;;5004052;28;19910;-84
2023/08/07 12:50:56;;;;;;;;;;;18.30;69.70;;;;;;5000878;28;19993;-82
2023/08/07 12:53:21;;;;;;;;;;;18.50;68.30;;;;;;4997974;28;20380;-83
2023/08/07 12:55:46;;;;;;;;;;;18.40;68.60;;;;;;4982012;28;19910;-82
2023/08/07 12:58:12;;;;;;;;;;;18.30;68.20;;;;;;4985501;28;19964;-83
2023/08/07 13:00:37;;;;;;;;;;;18.10;68.60;;;;;;5003757;28;19941;-82
2023/08/07 13:03:03;;;;;;;;;;;17.90;68.60;;;;;;5001954;28;19914;-83
2023/08/07 13:05:32;;;;;;;;;;;18.00;68.90;;;;;;5001072;28;19978;-81
2023/08/07 13:07:58;;;;;;;;;;;18.00;68.70;;;;;;5002370;28;19937;-83
2023/08/07 13:10:24;;;;;;;;;;;18.10;69.40;;;;;;5002398;28;19966;-83
2023/08/07 13:12:49;;;;;;;;;;;18.00;66.40;;;;;;5004822;28;19936;-82
2023/08/07 13:15:16;;;;;;;;;;;18.00;68.50;;;;;;5014898;28;19910;-82
2023/08/07 13:17:42;;;;;;;;;;;18.10;68.20;;;;;;5012517;28;19910;-83
2023/08/07 13:20:08;;;;;;;;;;;18.20;67.80;;;;;;5006342;28;19914;-82
2023/08/07 13:22:37;;;;;;;;;;;18.40;66.80;;;;;;5005535;28;19909;-83
2023/08/07 13:25:03;;;;;;;;;;;18.60;66.00;;;;;;5005299;28;19914;-81
2023/08/07 13:27:29;;;;;;;;;;;18.80;63.90;;;;;;4997392;28;19914;-82
2023/08/07 13:29:54;;;;;;;;;;;18.70;63.00;;;;;;4996010;28;19914;-83
2023/08/07 13:32:20;;;;;;;;;;;18.50;62.30;;;;;;4997340;28;20434;-82
2023/08/07 13:34:45;;;;;;;;;;;18.40;63.90;;;;;;4994837;28;20209;-81
2023/08/07 13:37:11;;;;;;;;;;;18.20;63.50;;;;;;4996359;28;19916;-81
2023/08/07 13:39:37;;;;;;;;;;;18.30;63.90;;;;;;4995207;28;19957;-82
2023/08/07 13:42:02;;;;;;;;;;;18.20;63.30;;;;;;4996571;28;20391;-82
2023/08/07 13:44:28;;;;;;;;;;;18.30;63.50;;;;;;4998644;28;19981;-83
2023/08/07 13:46:54;;;;;;;;;;;18.30;63.90;;;;;;5006888;28;19910;-81
2023/08/07 13:49:20;;;;;;;;;;;18.30;63.40;;;;;;5019369;28;19913;-80
2023/08/07 13:51:45;;;;;;;;;;;18.40;63.50;;;;;;5005983;28;19929;-81
2023/08/07 13:54:14;;;;;;;;;;;18.60;63.80;;;;;;4999046;28;19910;-82
2023/08/07 13:56:39;;;;;;;;;;;18.80;64.80;;;;;;4998191;28;19909;-81
2023/08/07 13:59:08;;;;;;;;;;;18.80;62.70;;;;;;4997362;28;20327;-82
2023/08/07 14:01:35;;;;;;;;;;;18.80;63.80;;;;;;4999085;28;19946;-83
2023/08/07 14:04:03;;;;;;;;;;;18.50;63.60;;;;;;5004054;28;19914;-82
2023/08/07 14:06:28;;;;;;;;;;;18.30;67.90;;;;;;5004518;28;19910;-83
2023/08/07 14:08:54;;;;;;;;;;;18.00;69.70;;;;;;5005574;28;19914;-81
2023/08/07 14:11:20;;;;;;;;;;;17.70;74.30;;;;;;5004657;28;19906;-81
2023/08/07 14:13:46;;;;;;;;;;;17.60;73.70;;;;;;5003095;28;20287;-82
2023/08/07 14:16:11;;;;;;;;;;;17.60;72.70;;;;;;5004640;28;19909;-82